Gifford, Illinois
Current Conditions -  °F | °C
As of 2:30 PM on Saturday 25 Oct 2014 (Local Time) from KTIP Reporting Station
Clear Clear  
Wind Chill: 78°   Ceiling: Unl
Heat Index: 78°   Visibility: 10mi
Dew Point: 46°   Wind: 10mph
Humidity: 32%   Direction: 310°NW
Pressure: 29.97"   Gusts: 20mph
Location:  40.31°N, 88.02°W
Report Text: KTIP 251930Z AUTO 31009G17KT 10SM CLR 26/08 A2997 RMK AO2 T02550078
Loading
Personal Weather Stations






























Interactive Weather Map
Tropical Storm Tracking
New forecast layout! Learn more

10-Day Weather Forecast

Advertisements
Track Severe Weather on mobile